sensor_id;sensor_type;location;lat;lon;timestamp;temperature;humidity
3548;DHT22;1788;49.400;11.092;2022-08-07T00:02:06;20.50;37.60
3548;DHT22;1788;49.400;11.092;2022-08-07T00:04:33;20.50;37.70
3548;DHT22;1788;49.400;11.092;2022-08-07T00:07:00;20.50;37.80
3548;DHT22;1788;49.400;11.092;2022-08-07T00:09:27;20.40;38.00
3548;DHT22;1788;49.400;11.092;2022-08-07T00:11:54;20.40;38.50
3548;DHT22;1788;49.400;11.092;2022-08-07T00:14:21;20.30;38.10
3548;DHT22;1788;49.400;11.092;2022-08-07T00:16:48;20.30;38.10
3548;DHT22;1788;49.400;11.092;2022-08-07T00:19:15;20.20;38.30
3548;DHT22;1788;49.400;11.092;2022-08-07T00:21:41;20.20;38.20
3548;DHT22;1788;49.400;11.092;2022-08-07T00:24:08;20.10;38.20
3548;DHT22;1788;49.400;11.092;2022-08-07T00:26:35;20.10;38.30
3548;DHT22;1788;49.400;11.092;2022-08-07T00:29:01;20.10;38.40
3548;DHT22;1788;49.400;11.092;2022-08-07T00:31:29;20.10;38.60
3548;DHT22;1788;49.400;11.092;2022-08-07T00:33:55;20.00;38.50
3548;DHT22;1788;49.400;11.092;2022-08-07T00:36:22;20.00;38.60
3548;DHT22;1788;49.400;11.092;2022-08-07T00:38:49;20.00;38.80
3548;DHT22;1788;49.400;11.092;2022-08-07T00:41:15;20.00;38.90
3548;DHT22;1788;49.400;11.092;2022-08-07T00:43:42;19.90;39.00
3548;DHT22;1788;49.400;11.092;2022-08-07T00:46:09;19.90;39.30
3548;DHT22;1788;49.400;11.092;2022-08-07T00:48:36;19.80;39.30
3548;DHT22;1788;49.400;11.092;2022-08-07T00:51:02;19.80;39.50
3548;DHT22;1788;49.400;11.092;2022-08-07T00:53:29;19.80;39.70
3548;DHT22;1788;49.400;11.092;2022-08-07T00:55:56;19.70;39.90
3548;DHT22;1788;49.400;11.092;2022-08-07T00:58:23;19.60;40.30
3548;DHT22;1788;49.400;11.092;2022-08-07T01:00:50;19.60;40.30
3548;DHT22;1788;49.400;11.092;2022-08-07T01:03:17;19.50;40.90
3548;DHT22;1788;49.400;11.092;2022-08-07T01:05:44;19.50;40.60
3548;DHT22;1788;49.400;11.092;2022-08-07T01:08:11;19.40;41.50
3548;DHT22;1788;49.400;11.092;2022-08-07T01:10:38;19.40;40.90
3548;DHT22;1788;49.400;11.092;2022-08-07T01:13:04;19.40;41.00
3548;DHT22;1788;49.400;11.092;2022-08-07T01:15:31;19.30;41.00
3548;DHT22;1788;49.400;11.092;2022-08-07T01:17:57;19.20;41.10
3548;DHT22;1788;49.400;11.092;2022-08-07T01:20:25;19.20;41.20
3548;DHT22;1788;49.400;11.092;2022-08-07T01:22:51;19.10;41.30
3548;DHT22;1788;49.400;11.092;2022-08-07T01:25:18;18.90;41.50
3548;DHT22;1788;49.400;11.092;2022-08-07T01:27:45;18.90;41.50
3548;DHT22;1788;49.400;11.092;2022-08-07T01:30:11;18.90;41.60
3548;DHT22;1788;49.400;11.092;2022-08-07T01:32:38;18.80;41.60
3548;DHT22;1788;49.400;11.092;2022-08-07T01:35:05;18.80;41.70
3548;DHT22;1788;49.400;11.092;2022-08-07T01:37:32;18.70;41.80
3548;DHT22;1788;49.400;11.092;2022-08-07T01:39:59;18.70;41.80
3548;DHT22;1788;49.400;11.092;2022-08-07T01:42:25;18.70;41.90
3548;DHT22;1788;49.400;11.092;2022-08-07T01:44:52;18.60;42.00
3548;DHT22;1788;49.400;11.092;2022-08-07T01:47:18;18.60;42.20
3548;DHT22;1788;49.400;11.092;2022-08-07T01:49:45;18.50;42.30
3548;DHT22;1788;49.400;11.092;2022-08-07T01:52:12;18.40;42.30
3548;DHT22;1788;49.400;11.092;2022-08-07T01:54:39;18.40;42.50
3548;DHT22;1788;49.400;11.092;2022-08-07T02:02:02;18.20;42.60
3548;DHT22;1788;49.400;11.092;2022-08-07T02:04:27;18.10;42.60
3548;DHT22;1788;49.400;11.092;2022-08-07T02:06:54;18.10;42.80
3548;DHT22;1788;49.400;11.092;2022-08-07T02:09:20;17.90;42.90
3548;DHT22;1788;49.400;11.092;2022-08-07T02:11:48;17.90;42.90
3548;DHT22;1788;49.400;11.092;2022-08-07T02:14:14;17.90;43.10
3548;DHT22;1788;49.400;11.092;2022-08-07T02:16:40;17.80;43.20
3548;DHT22;1788;49.400;11.092;2022-08-07T02:19:08;17.70;43.30
3548;DHT22;1788;49.400;11.092;2022-08-07T02:21:35;17.60;43.60
3548;DHT22;1788;49.400;11.092;2022-08-07T02:24:01;17.60;43.60
3548;DHT22;1788;49.400;11.092;2022-08-07T02:26:27;17.60;43.80
3548;DHT22;1788;49.400;11.092;2022-08-07T02:28:54;17.60;43.90
3548;DHT22;1788;49.400;11.092;2022-08-07T02:31:21;17.50;44.00
3548;DHT22;1788;49.400;11.092;2022-08-07T02:33:47;17.50;44.20
3548;DHT22;1788;49.400;11.092;2022-08-07T02:36:14;17.40;44.40
3548;DHT22;1788;49.400;11.092;2022-08-07T02:38:40;17.40;44.50
3548;DHT22;1788;49.400;11.092;2022-08-07T02:41:07;17.30;44.60
3548;DHT22;1788;49.400;11.092;2022-08-07T02:43:35;17.20;44.80
3548;DHT22;1788;49.400;11.092;2022-08-07T02:46:01;17.20;44.80
3548;DHT22;1788;49.400;11.092;2022-08-07T02:48:29;17.20;45.00
3548;DHT22;1788;49.400;11.092;2022-08-07T02:50:55;17.10;45.00
3548;DHT22;1788;49.400;11.092;2022-08-07T02:53:23;17.10;45.00
3548;DHT22;1788;49.400;11.092;2022-08-07T02:55:48;17.10;45.10
3548;DHT22;1788;49.400;11.092;2022-08-07T02:58:16;17.10;45.30
3548;DHT22;1788;49.400;11.092;2022-08-07T03:00:42;17.00;45.50
3548;DHT22;1788;49.400;11.092;2022-08-07T03:03:09;16.90;45.40
3548;DHT22;1788;49.400;11.092;2022-08-07T03:05:36;16.90;46.30
3548;DHT22;1788;49.400;11.092;2022-08-07T03:08:03;16.80;45.70
3548;DHT22;1788;49.400;11.092;2022-08-07T03:10:30;16.80;46.20
3548;DHT22;1788;49.400;11.092;2022-08-07T03:12:57;16.80;45.90
3548;DHT22;1788;49.400;11.092;2022-08-07T03:15:23;16.80;45.90
3548;DHT22;1788;49.400;11.092;2022-08-07T03:17:50;16.70;46.00
3548;DHT22;1788;49.400;11.092;2022-08-07T03:20:17;16.70;46.10
3548;DHT22;1788;49.400;11.092;2022-08-07T03:22:43;16.60;46.10
3548;DHT22;1788;49.400;11.092;2022-08-07T03:25:10;16.60;46.30
3548;DHT22;1788;49.400;11.092;2022-08-07T03:27:37;16.50;46.30
3548;DHT22;1788;49.400;11.092;2022-08-07T03:30:03;16.50;46.50
3548;DHT22;1788;49.400;11.092;2022-08-07T03:32:32;16.50;46.60
3548;DHT22;1788;49.400;11.092;2022-08-07T03:34:58;16.50;46.70
3548;DHT22;1788;49.400;11.092;2022-08-07T03:37:24;16.40;46.60
3548;DHT22;1788;49.400;11.092;2022-08-07T03:39:50;16.40;46.70
3548;DHT22;1788;49.400;11.092;2022-08-07T03:42:17;16.40;46.70
3548;DHT22;1788;49.400;11.092;2022-08-07T03:44:44;16.40;46.90
3548;DHT22;1788;49.400;11.092;2022-08-07T03:47:10;16.30;46.90
3548;DHT22;1788;49.400;11.092;2022-08-07T03:49:37;16.30;47.00
3548;DHT22;1788;49.400;11.092;2022-08-07T03:52:04;16.20;47.10
3548;DHT22;1788;49.400;11.092;2022-08-07T03:54:30;16.20;47.20
3548;DHT22;1788;49.400;11.092;2022-08-07T03:56:57;16.10;47.30
3548;DHT22;1788;49.400;11.092;2022-08-07T03:59:25;16.10;47.30
3548;DHT22;1788;49.400;11.092;2022-08-07T04:01:52;16.10;47.40
3548;DHT22;1788;49.400;11.092;2022-08-07T04:04:18;16.00;47.30
3548;DHT22;1788;49.400;11.092;2022-08-07T04:06:45;16.00;47.40
3548;DHT22;1788;49.400;11.092;2022-08-07T04:09:12;16.00;47.50
3548;DHT22;1788;49.400;11.092;2022-08-07T04:11:39;15.90;47.60
3548;DHT22;1788;49.400;11.092;2022-08-07T04:14:06;15.90;47.60
3548;DHT22;1788;49.400;11.092;2022-08-07T04:16:32;15.90;47.70
3548;DHT22;1788;49.400;11.092;2022-08-07T04:18:59;15.80;47.80
3548;DHT22;1788;49.400;11.092;2022-08-07T04:21:26;15.80;48.00
3548;DHT22;1788;49.400;11.092;2022-08-07T04:23:53;15.80;48.00
3548;DHT22;1788;49.400;11.092;2022-08-07T04:26:20;15.80;48.00
3548;DHT22;1788;49.400;11.092;2022-08-07T04:28:46;15.80;48.10
3548;DHT22;1788;49.400;11.092;2022-08-07T04:31:13;15.80;48.20
3548;DHT22;1788;49.400;11.092;2022-08-07T04:33:40;15.70;48.30
3548;DHT22;1788;49.400;11.092;2022-08-07T04:36:07;15.70;48.30
3548;DHT22;1788;49.400;11.092;2022-08-07T04:38:35;15.70;48.70
3548;DHT22;1788;49.400;11.092;2022-08-07T04:41:01;15.70;48.50
3548;DHT22;1788;49.400;11.092;2022-08-07T04:43:30;15.70;48.60
3548;DHT22;1788;49.400;11.092;2022-08-07T04:48:29;15.80;48.80
3548;DHT22;1788;49.400;11.092;2022-08-07T04:50:52;15.70;48.70
3548;DHT22;1788;49.400;11.092;2022-08-07T04:53:18;15.80;48.70
3548;DHT22;1788;49.400;11.092;2022-08-07T05:00:37;15.90;48.90
3548;DHT22;1788;49.400;11.092;2022-08-07T05:10:25;16.00;49.30
3548;DHT22;1788;49.400;11.092;2022-08-07T05:12:51;16.00;49.20
3548;DHT22;1788;49.400;11.092;2022-08-07T05:17:45;16.20;49.40
3548;DHT22;1788;49.400;11.092;2022-08-07T05:22:38;16.30;49.40
3548;DHT22;1788;49.400;11.092;2022-08-07T05:25:06;16.50;49.60
3548;DHT22;1788;49.400;11.092;2022-08-07T05:27:32;16.40;49.50
3548;DHT22;1788;49.400;11.092;2022-08-07T05:29:59;16.60;49.60
3548;DHT22;1788;49.400;11.092;2022-08-07T05:32:25;16.70;50.40
3548;DHT22;1788;49.400;11.092;2022-08-07T05:34:52;16.80;49.70
3548;DHT22;1788;49.400;11.092;2022-08-07T05:37:19;17.00;49.80
3548;DHT22;1788;49.400;11.092;2022-08-07T05:39:47;17.20;49.70
3548;DHT22;1788;49.400;11.092;2022-08-07T05:42:15;17.40;49.70
3548;DHT22;1788;49.400;11.092;2022-08-07T05:44:41;17.40;49.70
3548;DHT22;1788;49.400;11.092;2022-08-07T05:47:08;17.60;49.60
3548;DHT22;1788;49.400;11.092;2022-08-07T05:49:34;17.70;49.30
3548;DHT22;1788;49.400;11.092;2022-08-07T05:52:03;18.00;48.90
3548;DHT22;1788;49.400;11.092;2022-08-07T05:54:30;18.20;49.10
3548;DHT22;1788;49.400;11.092;2022-08-07T05:56:57;18.20;48.70
3548;DHT22;1788;49.400;11.092;2022-08-07T05:59:23;18.30;48.40
3548;DHT22;1788;49.400;11.092;2022-08-07T06:01:50;18.50;48.30
3548;DHT22;1788;49.400;11.092;2022-08-07T06:04:18;18.60;48.00
3548;DHT22;1788;49.400;11.092;2022-08-07T06:06:45;18.90;47.60
3548;DHT22;1788;49.400;11.092;2022-08-07T06:09:11;18.90;47.60
3548;DHT22;1788;49.400;11.092;2022-08-07T06:11:39;19.20;47.70
3548;DHT22;1788;49.400;11.092;2022-08-07T06:14:06;19.20;47.10
3548;DHT22;1788;49.400;11.092;2022-08-07T06:16:33;19.40;47.00
3548;DHT22;1788;49.400;11.092;2022-08-07T06:18:59;19.60;46.90
3548;DHT22;1788;49.400;11.092;2022-08-07T06:21:26;19.70;46.50
3548;DHT22;1788;49.400;11.092;2022-08-07T06:23:52;19.90;46.90
3548;DHT22;1788;49.400;11.092;2022-08-07T06:26:19;20.00;46.10
3548;DHT22;1788;49.400;11.092;2022-08-07T06:28:47;20.20;45.90
3548;DHT22;1788;49.400;11.092;2022-08-07T06:31:13;20.30;46.20
3548;DHT22;1788;49.400;11.092;2022-08-07T06:33:39;20.50;45.60
3548;DHT22;1788;49.400;11.092;2022-08-07T06:36:06;20.60;45.50
3548;DHT22;1788;49.400;11.092;2022-08-07T06:38:33;20.80;45.30
3548;DHT22;1788;49.400;11.092;2022-08-07T06:40:59;20.90;45.00
3548;DHT22;1788;49.400;11.092;2022-08-07T06:43:26;21.10;44.90
3548;DHT22;1788;49.400;11.092;2022-08-07T06:45:53;21.30;44.60
3548;DHT22;1788;49.400;11.092;2022-08-07T06:48:21;21.30;44.50
3548;DHT22;1788;49.400;11.092;2022-08-07T06:50:49;21.50;44.10
3548;DHT22;1788;49.400;11.092;2022-08-07T06:53:16;21.50;44.10
3548;DHT22;1788;49.400;11.092;2022-08-07T06:55:42;21.70;44.10
3548;DHT22;1788;49.400;11.092;2022-08-07T06:58:09;21.80;44.00
3548;DHT22;1788;49.400;11.092;2022-08-07T07:00:36;22.00;44.00
3548;DHT22;1788;49.400;11.092;2022-08-07T07:03:02;22.10;43.80
3548;DHT22;1788;49.400;11.092;2022-08-07T07:05:29;22.30;43.70
3548;DHT22;1788;49.400;11.092;2022-08-07T07:07:56;22.40;43.50
3548;DHT22;1788;49.400;11.092;2022-08-07T07:12:51;22.80;43.20
3548;DHT22;1788;49.400;11.092;2022-08-07T07:15:16;22.90;42.80
3548;DHT22;1788;49.400;11.092;2022-08-07T07:17:44;23.00;42.50
3548;DHT22;1788;49.400;11.092;2022-08-07T07:20:12;23.20;42.00
3548;DHT22;1788;49.400;11.092;2022-08-07T07:22:37;23.20;42.00
3548;DHT22;1788;49.400;11.092;2022-08-07T07:25:11;23.40;42.00
3548;DHT22;1788;49.400;11.092;2022-08-07T07:27:39;23.40;41.40
3548;DHT22;1788;49.400;11.092;2022-08-07T07:30:03;23.50;41.20
3548;DHT22;1788;49.400;11.092;2022-08-07T07:32:30;23.60;40.80
3548;DHT22;1788;49.400;11.092;2022-08-07T07:34:56;23.60;40.40
3548;DHT22;1788;49.400;11.092;2022-08-07T07:37:23;23.70;40.30
3548;DHT22;1788;49.400;11.092;2022-08-07T07:39:50;23.80;39.80
3548;DHT22;1788;49.400;11.092;2022-08-07T07:42:17;23.80;40.00
3548;DHT22;1788;49.400;11.092;2022-08-07T07:44:44;23.90;39.90
3548;DHT22;1788;49.400;11.092;2022-08-07T07:47:10;24.00;39.50
3548;DHT22;1788;49.400;11.092;2022-08-07T07:49:37;24.10;39.30
3548;DHT22;1788;49.400;11.092;2022-08-07T07:52:04;24.20;39.00
3548;DHT22;1788;49.400;11.092;2022-08-07T07:54:31;24.20;38.60
3548;DHT22;1788;49.400;11.092;2022-08-07T07:56:58;24.30;38.30
3548;DHT22;1788;49.400;11.092;2022-08-07T07:59:24;24.40;38.20
3548;DHT22;1788;49.400;11.092;2022-08-07T08:01:51;24.50;37.90
3548;DHT22;1788;49.400;11.092;2022-08-07T08:04:19;24.60;37.70
3548;DHT22;1788;49.400;11.092;2022-08-07T08:06:45;24.60;37.80
3548;DHT22;1788;49.400;11.092;2022-08-07T08:09:13;24.80;37.30
3548;DHT22;1788;49.400;11.092;2022-08-07T08:11:39;24.80;36.70
3548;DHT22;1788;49.400;11.092;2022-08-07T08:14:06;24.80;36.40
3548;DHT22;1788;49.400;11.092;2022-08-07T08:16:34;24.80;36.30
3548;DHT22;1788;49.400;11.092;2022-08-07T08:18:59;24.90;36.20
3548;DHT22;1788;49.400;11.092;2022-08-07T08:21:26;24.90;35.90
3548;DHT22;1788;49.400;11.092;2022-08-07T08:23:52;24.90;36.00
3548;DHT22;1788;49.400;11.092;2022-08-07T08:26:19;24.90;35.80
3548;DHT22;1788;49.400;11.092;2022-08-07T08:28:45;25.00;35.60
3548;DHT22;1788;49.400;11.092;2022-08-07T08:31:15;25.20;35.60
3548;DHT22;1788;49.400;11.092;2022-08-07T08:33:39;25.20;35.60
3548;DHT22;1788;49.400;11.092;2022-08-07T08:36:07;25.40;35.60
3548;DHT22;1788;49.400;11.092;2022-08-07T08:38:35;25.30;35.60
3548;DHT22;1788;49.400;11.092;2022-08-07T08:41:04;25.50;35.50
3548;DHT22;1788;49.400;11.092;2022-08-07T08:45:57;25.70;35.30
3548;DHT22;1788;49.400;11.092;2022-08-07T08:50:50;25.80;35.00
3548;DHT22;1788;49.400;11.092;2022-08-07T08:53:18;25.90;35.00
3548;DHT22;1788;49.400;11.092;2022-08-07T08:55:44;26.00;34.90
3548;DHT22;1788;49.400;11.092;2022-08-07T09:00:42;26.20;34.50
3548;DHT22;1788;49.400;11.092;2022-08-07T09:03:04;26.30;34.30
3548;DHT22;1788;49.400;11.092;2022-08-07T09:10:22;26.40;33.80
3548;DHT22;1788;49.400;11.092;2022-08-07T09:15:20;26.50;33.60
3548;DHT22;1788;49.400;11.092;2022-08-07T09:22:40;26.70;33.00
3548;DHT22;1788;49.400;11.092;2022-08-07T09:27:37;26.80;32.70
3548;DHT22;1788;49.400;11.092;2022-08-07T09:51:59;27.10;30.90
3548;DHT22;1788;49.400;11.092;2022-08-07T10:14:03;27.50;30.90
3548;DHT22;1788;49.400;11.092;2022-08-07T10:21:28;27.70;30.80
3548;DHT22;1788;49.400;11.092;2022-08-07T10:40:55;28.30;30.00
3548;DHT22;1788;49.400;11.092;2022-08-07T10:45:50;28.40;29.90
3548;DHT22;1788;49.400;11.092;2022-08-07T10:48:21;28.40;29.80
3548;DHT22;1788;49.400;11.092;2022-08-07T10:50:44;28.60;29.60
3548;DHT22;1788;49.400;11.092;2022-08-07T11:00:33;28.50;29.10
3548;DHT22;1788;49.400;11.092;2022-08-07T11:15:16;28.10;29.30
3548;DHT22;1788;49.400;11.092;2022-08-07T11:20:09;28.10;29.40
3548;DHT22;1788;49.400;11.092;2022-08-07T11:25:04;28.20;29.40
3548;DHT22;1788;49.400;11.092;2022-08-07T11:27:30;28.30;29.10
3548;DHT22;1788;49.400;11.092;2022-08-07T11:29:58;28.20;29.10
3548;DHT22;1788;49.400;11.092;2022-08-07T11:32:28;28.30;29.00
3548;DHT22;1788;49.400;11.092;2022-08-07T11:37:23;28.30;28.80
3548;DHT22;1788;49.400;11.092;2022-08-07T11:42:14;28.60;28.60
3548;DHT22;1788;49.400;11.092;2022-08-07T11:52:07;29.00;28.30
3548;DHT22;1788;49.400;11.092;2022-08-07T12:01:49;29.30;28.40
3548;DHT22;1788;49.400;11.092;2022-08-07T12:09:11;29.60;27.70
3548;DHT22;1788;49.400;11.092;2022-08-07T12:16:33;29.70;27.60
3548;DHT22;1788;49.400;11.092;2022-08-07T12:31:12;30.00;27.30
3548;DHT22;1788;49.400;11.092;2022-08-07T12:33:38;30.00;27.30
3548;DHT22;1788;49.400;11.092;2022-08-07T12:36:05;30.10;27.70
3548;DHT22;1788;49.400;11.092;2022-08-07T12:38:32;30.10;27.20
3548;DHT22;1788;49.400;11.092;2022-08-07T12:41:00;30.30;27.00
3548;DHT22;1788;49.400;11.092;2022-08-07T12:43:28;30.30;27.00
3548;DHT22;1788;49.400;11.092;2022-08-07T12:58:10;31.80;26.10
3548;DHT22;1788;49.400;11.092;2022-08-07T13:08:00;32.40;25.50
3548;DHT22;1788;49.400;11.092;2022-08-07T13:20:14;33.60;24.50
3548;DHT22;1788;49.400;11.092;2022-08-07T13:22:40;33.90;24.30
3548;DHT22;1788;49.400;11.092;2022-08-07T13:30:00;34.80;23.50
3548;DHT22;1788;49.400;11.092;2022-08-07T13:34:55;35.10;23.10
3548;DHT22;1788;49.400;11.092;2022-08-07T13:42:12;35.90;22.50
3548;DHT22;1788;49.400;11.092;2022-08-07T13:44:39;36.20;22.10
3548;DHT22;1788;49.400;11.092;2022-08-07T13:47:06;36.20;22.10
3548;DHT22;1788;49.400;11.092;2022-08-07T13:49:34;36.20;22.00
3548;DHT22;1788;49.400;11.092;2022-08-07T13:54:28;36.30;21.80
3548;DHT22;1788;49.400;11.092;2022-08-07T13:56:54;36.30;21.70
3548;DHT22;1788;49.400;11.092;2022-08-07T13:59:20;36.20;21.50
3548;DHT22;1788;49.400;11.092;2022-08-07T14:01:48;35.90;21.60
3548;DHT22;1788;49.400;11.092;2022-08-07T14:04:14;35.90;21.70
3548;DHT22;1788;49.400;11.092;2022-08-07T14:06:41;35.80;21.50
3548;DHT22;1788;49.400;11.092;2022-08-07T14:09:08;35.70;21.50
3548;DHT22;1788;49.400;11.092;2022-08-07T14:11:36;35.50;21.60
3548;DHT22;1788;49.400;11.092;2022-08-07T14:18:55;35.10;21.70
3548;DHT22;1788;49.400;11.092;2022-08-07T14:23:50;34.70;22.00
3548;DHT22;1788;49.400;11.092;2022-08-07T14:26:18;34.70;22.00
3548;DHT22;1788;49.400;11.092;2022-08-07T14:28:43;34.30;22.20
3548;DHT22;1788;49.400;11.092;2022-08-07T14:31:10;34.30;22.10
3548;DHT22;1788;49.400;11.092;2022-08-07T14:33:37;34.00;22.30
3548;DHT22;1788;49.400;11.092;2022-08-07T14:36:03;33.90;22.70
3548;DHT22;1788;49.400;11.092;2022-08-07T14:38:30;33.80;22.50
3548;DHT22;1788;49.400;11.092;2022-08-07T14:43:24;33.40;22.60
3548;DHT22;1788;49.400;11.092;2022-08-07T14:50:46;32.60;22.70
3548;DHT22;1788;49.400;11.092;2022-08-07T14:53:11;32.50;22.90
3548;DHT22;1788;49.400;11.092;2022-08-07T14:55:37;32.30;23.00
3548;DHT22;1788;49.400;11.092;2022-08-07T14:58:04;32.10;23.00
3548;DHT22;1788;49.400;11.092;2022-08-07T15:00:31;31.80;23.00
3548;DHT22;1788;49.400;11.092;2022-08-07T15:02:58;31.60;23.20
3548;DHT22;1788;49.400;11.092;2022-08-07T15:05:26;31.60;23.20
3548;DHT22;1788;49.400;11.092;2022-08-07T15:07:52;31.50;23.20
3548;DHT22;1788;49.400;11.092;2022-08-07T15:10:21;31.40;23.10
3548;DHT22;1788;49.400;11.092;2022-08-07T15:12:46;31.40;23.20
3548;DHT22;1788;49.400;11.092;2022-08-07T15:15:20;31.20;23.30
3548;DHT22;1788;49.400;11.092;2022-08-07T15:17:43;31.20;23.30
3548;DHT22;1788;49.400;11.092;2022-08-07T15:20:10;31.20;23.20
3548;DHT22;1788;49.400;11.092;2022-08-07T15:27:34;30.90;23.30
3548;DHT22;1788;49.400;11.092;2022-08-07T15:30:06;30.90;23.30
3548;DHT22;1788;49.400;11.092;2022-08-07T15:34:57;30.80;23.50
3548;DHT22;1788;49.400;11.092;2022-08-07T15:39:52;30.80;23.50
3548;DHT22;1788;49.400;11.092;2022-08-07T15:47:13;30.70;23.40
3548;DHT22;1788;49.400;11.092;2022-08-07T15:49:39;30.70;23.30
3548;DHT22;1788;49.400;11.092;2022-08-07T15:52:06;30.60;23.10
3548;DHT22;1788;49.400;11.092;2022-08-07T15:54:35;30.60;23.20
3548;DHT22;1788;49.400;11.092;2022-08-07T15:57:01;30.60;23.20
3548;DHT22;1788;49.400;11.092;2022-08-07T15:59:27;30.50;23.20
3548;DHT22;1788;49.400;11.092;2022-08-07T16:01:54;30.60;23.20
3548;DHT22;1788;49.400;11.092;2022-08-07T16:04:21;30.60;23.20
3548;DHT22;1788;49.400;11.092;2022-08-07T16:06:48;30.60;23.20
3548;DHT22;1788;49.400;11.092;2022-08-07T16:28:52;30.50;22.90
3548;DHT22;1788;49.400;11.092;2022-08-07T16:33:41;30.30;23.00
3548;DHT22;1788;49.400;11.092;2022-08-07T16:53:19;29.40;23.60
3548;DHT22;1788;49.400;11.092;2022-08-07T16:55:47;29.10;23.70
3548;DHT22;1788;49.400;11.092;2022-08-07T17:07:56;28.80;24.10
3548;DHT22;1788;49.400;11.092;2022-08-07T17:22:42;28.30;24.40
3548;DHT22;1788;49.400;11.092;2022-08-07T17:25:13;28.30;24.50
3548;DHT22;1788;49.400;11.092;2022-08-07T17:34:52;28.10;24.60
3548;DHT22;1788;49.400;11.092;2022-08-07T17:39:48;28.00;24.60
3548;DHT22;1788;49.400;11.092;2022-08-07T17:47:06;27.90;24.70
3548;DHT22;1788;49.400;11.092;2022-08-07T18:01:46;27.70;25.10
3548;DHT22;1788;49.400;11.092;2022-08-07T18:06:40;27.70;25.30
3548;DHT22;1788;49.400;11.092;2022-08-07T18:09:04;27.70;25.30
3548;DHT22;1788;49.400;11.092;2022-08-07T18:26:13;27.40;25.90
3548;DHT22;1788;49.400;11.092;2022-08-07T18:40:53;27.10;26.50
3548;DHT22;1788;49.400;11.092;2022-08-07T18:45:46;27.10;26.80
3548;DHT22;1788;49.400;11.092;2022-08-07T18:48:16;27.00;26.90
3548;DHT22;1788;49.400;11.092;2022-08-07T19:00:32;26.70;27.90
3548;DHT22;1788;49.400;11.092;2022-08-07T19:07:50;26.40;28.30
3548;DHT22;1788;49.400;11.092;2022-08-07T19:10:15;26.30;28.20
3548;DHT22;1788;49.400;11.092;2022-08-07T19:20:02;25.90;28.30
3548;DHT22;1788;49.400;11.092;2022-08-07T19:24:53;25.90;28.70
3548;DHT22;1788;49.400;11.092;2022-08-07T19:27:21;25.80;28.80
3548;DHT22;1788;49.400;11.092;2022-08-07T19:32:15;25.70;29.00
3548;DHT22;1788;49.400;11.092;2022-08-07T19:34:41;25.70;29.40
3548;DHT22;1788;49.400;11.092;2022-08-07T19:37:08;25.60;29.30
3548;DHT22;1788;49.400;11.092;2022-08-07T19:39:34;25.60;29.50
3548;DHT22;1788;49.400;11.092;2022-08-07T19:42:01;25.60;29.70
3548;DHT22;1788;49.400;11.092;2022-08-07T19:44:31;25.50;29.90
3548;DHT22;1788;49.400;11.092;2022-08-07T19:47:01;25.40;30.40
3548;DHT22;1788;49.400;11.092;2022-08-07T19:49:22;25.40;30.30
3548;DHT22;1788;49.400;11.092;2022-08-07T19:51:50;25.30;30.80
3548;DHT22;1788;49.400;11.092;2022-08-07T19:56:44;25.20;31.00
3548;DHT22;1788;49.400;11.092;2022-08-07T20:01:36;25.00;31.40
3548;DHT22;1788;49.400;11.092;2022-08-07T20:04:02;24.90;31.60
3548;DHT22;1788;49.400;11.092;2022-08-07T20:06:29;24.90;31.80
3548;DHT22;1788;49.400;11.092;2022-08-07T20:08:55;24.80;32.10
3548;DHT22;1788;49.400;11.092;2022-08-07T20:11:22;24.70;32.20
3548;DHT22;1788;49.400;11.092;2022-08-07T20:13:50;24.60;32.40
3548;DHT22;1788;49.400;11.092;2022-08-07T20:16:17;24.50;32.50
3548;DHT22;1788;49.400;11.092;2022-08-07T20:21:09;24.40;32.90
3548;DHT22;1788;49.400;11.092;2022-08-07T20:28:29;24.10;33.30
3548;DHT22;1788;49.400;11.092;2022-08-07T20:30:56;24.00;33.40
3548;DHT22;1788;49.400;11.092;2022-08-07T20:33:22;23.90;33.50
3548;DHT22;1788;49.400;11.092;2022-08-07T20:35:49;23.80;33.60
3548;DHT22;1788;49.400;11.092;2022-08-07T20:40:43;23.60;33.80
3548;DHT22;1788;49.400;11.092;2022-08-07T20:43:09;23.50;33.80
3548;DHT22;1788;49.400;11.092;2022-08-07T20:45:36;23.40;34.00
3548;DHT22;1788;49.400;11.092;2022-08-07T20:48:03;23.30;33.90
3548;DHT22;1788;49.400;11.092;2022-08-07T20:50:29;23.30;34.00
3548;DHT22;1788;49.400;11.092;2022-08-07T20:52:57;23.20;34.10
3548;DHT22;1788;49.400;11.092;2022-08-07T20:55:23;23.10;34.20
3548;DHT22;1788;49.400;11.092;2022-08-07T21:00:16;23.00;34.80
3548;DHT22;1788;49.400;11.092;2022-08-07T21:02:46;22.90;35.00
3548;DHT22;1788;49.400;11.092;2022-08-07T21:07:36;22.70;35.30
3548;DHT22;1788;49.400;11.092;2022-08-07T21:10:03;22.60;35.50
3548;DHT22;1788;49.400;11.092;2022-08-07T21:12:30;22.50;35.50
3548;DHT22;1788;49.400;11.092;2022-08-07T21:14:57;22.50;35.80
3548;DHT22;1788;49.400;11.092;2022-08-07T21:17:25;22.30;36.10
3548;DHT22;1788;49.400;11.092;2022-08-07T21:19:51;22.30;36.10
3548;DHT22;1788;49.400;11.092;2022-08-07T21:22:18;22.30;36.30
3548;DHT22;1788;49.400;11.092;2022-08-07T21:27:13;22.20;36.60
3548;DHT22;1788;49.400;11.092;2022-08-07T21:32:07;22.10;36.80
3548;DHT22;1788;49.400;11.092;2022-08-07T21:36:58;21.90;37.00
3548;DHT22;1788;49.400;11.092;2022-08-07T21:46:45;21.70;37.60
3548;DHT22;1788;49.400;11.092;2022-08-07T21:54:07;21.40;37.70
3548;DHT22;1788;49.400;11.092;2022-08-07T21:56:35;21.40;37.80
3548;DHT22;1788;49.400;11.092;2022-08-07T22:11:13;20.90;39.20
3548;DHT22;1788;49.400;11.092;2022-08-07T22:13:40;20.90;38.70
3548;DHT22;1788;49.400;11.092;2022-08-07T22:21:04;20.80;39.10
3548;DHT22;1788;49.400;11.092;2022-08-07T22:28:21;20.60;39.40
3548;DHT22;1788;49.400;11.092;2022-08-07T22:30:53;20.60;39.40
3548;DHT22;1788;49.400;11.092;2022-08-07T22:33:15;20.50;39.60
3548;DHT22;1788;49.400;11.092;2022-08-07T22:43:06;20.40;39.90
3548;DHT22;1788;49.400;11.092;2022-08-07T22:52:56;20.20;40.20
3548;DHT22;1788;49.400;11.092;2022-08-07T22:57:56;20.10;40.30
3548;DHT22;1788;49.400;11.092;2022-08-07T23:12:25;19.90;40.80
3548;DHT22;1788;49.400;11.092;2022-08-07T23:34:29;19.50;41.60
3548;DHT22;1788;49.400;11.092;2022-08-07T23:39:20;19.50;41.70
3548;DHT22;1788;49.400;11.092;2022-08-07T23:51:34;19.10;42.10
3548;DHT22;1788;49.400;11.092;2022-08-07T23:58:58;19.00;42.30
